sensor_id;sensor_type;location;lat;lon;timestamp;pressure;altitude;pressure_sealevel;temperature;humidity
8641;BME280;4358;42.100;25.222;2022-07-12T00:01:53;100337.16;;;18.75;78.68
8641;BME280;4358;42.100;25.222;2022-07-12T00:04:20;100333.78;;;18.73;79.28
8641;BME280;4358;42.100;25.222;2022-07-12T00:06:47;100340.00;;;18.63;79.49
8641;BME280;4358;42.100;25.222;2022-07-12T00:09:14;100337.47;;;18.62;79.04
8641;BME280;4358;42.100;25.222;2022-07-12T00:11:42;100334.63;;;18.63;76.91
8641;BME280;4358;42.100;25.222;2022-07-12T00:14:09;100339.16;;;18.73;75.50
8641;BME280;4358;42.100;25.222;2022-07-12T00:16:36;100332.66;;;18.56;79.17
8641;BME280;4358;42.100;25.222;2022-07-12T00:19:04;100333.94;;;18.61;79.24
8641;BME280;4358;42.100;25.222;2022-07-12T00:21:31;100340.00;;;18.63;79.82
8641;BME280;4358;42.100;25.222;2022-07-12T00:23:58;100332.09;;;18.62;80.27
8641;BME280;4358;42.100;25.222;2022-07-12T00:26:25;100335.91;;;18.59;80.32
8641;BME280;4358;42.100;25.222;2022-07-12T00:28:53;100348.78;;;18.66;79.73
8641;BME280;4358;42.100;25.222;2022-07-12T00:31:20;100338.31;;;18.63;79.29
8641;BME280;4358;42.100;25.222;2022-07-12T00:33:47;100340.16;;;18.62;79.47
8641;BME280;4358;42.100;25.222;2022-07-12T00:36:14;100347.38;;;18.61;80.00
8641;BME280;4358;42.100;25.222;2022-07-12T00:38:41;100344.81;;;18.50;82.83
8641;BME280;4358;42.100;25.222;2022-07-12T00:41:08;100344.09;;;18.29;85.60
8641;BME280;4358;42.100;25.222;2022-07-12T00:43:35;100350.47;;;18.09;88.55
8641;BME280;4358;42.100;25.222;2022-07-12T00:46:03;100347.63;;;18.10;88.82
8641;BME280;4358;42.100;25.222;2022-07-12T00:48:31;100356.97;;;18.16;88.79
8641;BME280;4358;42.100;25.222;2022-07-12T00:50:59;100350.47;;;18.09;88.94
8641;BME280;4358;42.100;25.222;2022-07-12T00:53:25;100354.97;;;17.99;88.48
8641;BME280;4358;42.100;25.222;2022-07-12T00:55:53;100354.38;;;17.95;88.30
8641;BME280;4358;42.100;25.222;2022-07-12T00:58:21;100353.25;;;17.98;87.75
8641;BME280;4358;42.100;25.222;2022-07-12T01:00:49;100357.22;;;18.03;87.21
8641;BME280;4358;42.100;25.222;2022-07-12T01:03:18;100349.72;;;17.88;88.22
8641;BME280;4358;42.100;25.222;2022-07-12T01:05:46;100351.25;;;17.90;88.80
8641;BME280;4358;42.100;25.222;2022-07-12T01:08:13;100356.03;;;17.77;90.31
8641;BME280;4358;42.100;25.222;2022-07-12T01:10:43;100361.19;;;17.90;90.02
8641;BME280;4358;42.100;25.222;2022-07-12T01:13:11;100347.47;;;17.93;90.01
8641;BME280;4358;42.100;25.222;2022-07-12T01:15:38;100350.44;;;17.90;90.49
8641;BME280;4358;42.100;25.222;2022-07-12T01:18:06;100353.94;;;17.81;91.59
8641;BME280;4358;42.100;25.222;2022-07-12T01:20:34;100354.75;;;17.62;93.66
8641;BME280;4358;42.100;25.222;2022-07-12T01:23:02;100351.44;;;17.58;94.59
8641;BME280;4358;42.100;25.222;2022-07-12T01:25:29;100358.28;;;17.62;94.65
8641;BME280;4358;42.100;25.222;2022-07-12T01:27:57;100351.31;;;17.60;94.66
8641;BME280;4358;42.100;25.222;2022-07-12T01:30:24;100350.00;;;17.54;95.26
8641;BME280;4358;42.100;25.222;2022-07-12T01:32:51;100355.13;;;17.57;93.49
8641;BME280;4358;42.100;25.222;2022-07-12T01:35:18;100359.38;;;17.60;94.15
8641;BME280;4358;42.100;25.222;2022-07-12T01:37:47;100353.94;;;17.50;94.95
8641;BME280;4358;42.100;25.222;2022-07-12T01:40:16;100366.47;;;17.40;96.16
8641;BME280;4358;42.100;25.222;2022-07-12T01:42:43;100364.63;;;17.31;97.18
8641;BME280;4358;42.100;25.222;2022-07-12T01:45:11;100365.41;;;17.22;98.36
8641;BME280;4358;42.100;25.222;2022-07-12T01:47:38;100358.94;;;17.24;98.28
8641;BME280;4358;42.100;25.222;2022-07-12T01:50:06;100369.44;;;17.37;98.13
8641;BME280;4358;42.100;25.222;2022-07-12T01:52:34;100366.47;;;17.40;97.97
8641;BME280;4358;42.100;25.222;2022-07-12T01:55:03;100370.59;;;17.44;97.10
8641;BME280;4358;42.100;25.222;2022-07-12T01:57:31;100353.94;;;17.50;95.95
8641;BME280;4358;42.100;25.222;2022-07-12T02:00:00;100349.44;;;17.51;93.21
8641;BME280;4358;42.100;25.222;2022-07-12T02:02:28;100361.47;;;17.56;93.74
8641;BME280;4358;42.100;25.222;2022-07-12T02:04:56;100370.06;;;17.50;94.84
8641;BME280;4358;42.100;25.222;2022-07-12T02:07:24;100353.22;;;17.48;95.27
8641;BME280;4358;42.100;25.222;2022-07-12T02:09:51;100359.31;;;17.50;96.01
8641;BME280;4358;42.100;25.222;2022-07-12T02:12:18;100359.56;;;17.38;95.55
8641;BME280;4358;42.100;25.222;2022-07-12T02:14:47;100359.72;;;17.46;94.40
8641;BME280;4358;42.100;25.222;2022-07-12T02:17:14;100361.03;;;17.51;92.87
8641;BME280;4358;42.100;25.222;2022-07-12T02:19:40;100365.66;;;17.49;91.45
8641;BME280;4358;42.100;25.222;2022-07-12T02:22:08;100365.50;;;17.41;93.38
8641;BME280;4358;42.100;25.222;2022-07-12T02:24:34;100370.56;;;17.34;94.45
8641;BME280;4358;42.100;25.222;2022-07-12T02:27:02;100366.56;;;17.29;96.08
8641;BME280;4358;42.100;25.222;2022-07-12T02:29:28;100371.56;;;17.13;98.21
8641;BME280;4358;42.100;25.222;2022-07-12T02:31:57;100367.75;;;17.06;98.42
8641;BME280;4358;42.100;25.222;2022-07-12T02:34:24;100368.38;;;16.98;98.77
8641;BME280;4358;42.100;25.222;2022-07-12T02:36:51;100374.59;;;16.99;97.88
8641;BME280;4358;42.100;25.222;2022-07-12T02:39:18;100367.75;;;17.06;95.40
8641;BME280;4358;42.100;25.222;2022-07-12T02:41:44;100371.00;;;17.09;94.22
8641;BME280;4358;42.100;25.222;2022-07-12T02:44:11;100378.06;;;17.10;94.50
8641;BME280;4358;42.100;25.222;2022-07-12T02:46:38;100376.06;;;17.12;93.67
8641;BME280;4358;42.100;25.222;2022-07-12T02:49:06;100383.56;;;17.09;93.93
8641;BME280;4358;42.100;25.222;2022-07-12T02:51:33;100375.22;;;17.12;93.59
8641;BME280;4358;42.100;25.222;2022-07-12T02:54:00;100377.78;;;17.13;93.04
8641;BME280;4358;42.100;25.222;2022-07-12T02:56:27;100369.34;;;17.18;92.88
8641;BME280;4358;42.100;25.222;2022-07-12T02:58:54;100379.94;;;17.19;93.09
8641;BME280;4358;42.100;25.222;2022-07-12T03:01:21;100374.44;;;17.21;92.68
8641;BME280;4358;42.100;25.222;2022-07-12T03:03:48;100382.22;;;17.24;93.33
8641;BME280;4358;42.100;25.222;2022-07-12T03:06:16;100376.34;;;17.09;95.49
8641;BME280;4358;42.100;25.222;2022-07-12T03:08:43;100377.91;;;17.12;95.96
8641;BME280;4358;42.100;25.222;2022-07-12T03:11:10;100377.47;;;17.07;94.53
8641;BME280;4358;42.100;25.222;2022-07-12T03:13:37;100382.81;;;17.07;92.73
8641;BME280;4358;42.100;25.222;2022-07-12T03:16:05;100382.38;;;17.02;92.27
8641;BME280;4358;42.100;25.222;2022-07-12T03:18:32;100381.34;;;16.93;91.81
8641;BME280;4358;42.100;25.222;2022-07-12T03:21:00;100368.56;;;16.85;92.02
8641;BME280;4358;42.100;25.222;2022-07-12T03:23:28;100373.13;;;16.85;92.10
8641;BME280;4358;42.100;25.222;2022-07-12T03:25:55;100381.16;;;16.85;91.21
8641;BME280;4358;42.100;25.222;2022-07-12T03:28:22;100377.88;;;16.81;89.70
8641;BME280;4358;42.100;25.222;2022-07-12T03:30:51;100375.91;;;16.83;89.13
8641;BME280;4358;42.100;25.222;2022-07-12T03:33:17;100386.66;;;16.83;87.97
8641;BME280;4358;42.100;25.222;2022-07-12T03:35:44;100384.66;;;16.85;87.01
8641;BME280;4358;42.100;25.222;2022-07-12T03:38:11;100385.84;;;16.92;86.82
8641;BME280;4358;42.100;25.222;2022-07-12T03:40:39;100383.03;;;16.94;86.54
8641;BME280;4358;42.100;25.222;2022-07-12T03:43:06;100387.28;;;16.97;86.30
8641;BME280;4358;42.100;25.222;2022-07-12T03:45:33;100391.88;;;17.06;85.95
8641;BME280;4358;42.100;25.222;2022-07-12T03:48:00;100387.50;;;17.05;86.79
8641;BME280;4358;42.100;25.222;2022-07-12T03:50:26;100392.63;;;16.97;88.40
8641;BME280;4358;42.100;25.222;2022-07-12T03:52:53;100392.47;;;16.88;89.28
8641;BME280;4358;42.100;25.222;2022-07-12T03:55:20;100388.81;;;16.89;90.97
8641;BME280;4358;42.100;25.222;2022-07-12T03:57:49;100394.09;;;17.01;89.75
8641;BME280;4358;42.100;25.222;2022-07-12T04:00:16;100398.66;;;17.10;92.61
8641;BME280;4358;42.100;25.222;2022-07-12T04:02:43;100399.38;;;17.12;93.69
8641;BME280;4358;42.100;25.222;2022-07-12T04:05:11;100394.59;;;17.15;91.18
8641;BME280;4358;42.100;25.222;2022-07-12T04:07:38;100406.19;;;17.16;90.51
8641;BME280;4358;42.100;25.222;2022-07-12T04:10:07;100409.03;;;17.24;93.13
8641;BME280;4358;42.100;25.222;2022-07-12T04:12:34;100417.31;;;17.11;96.72
8641;BME280;4358;42.100;25.222;2022-07-12T04:15:03;100411.69;;;17.14;96.04
8641;BME280;4358;42.100;25.222;2022-07-12T04:17:30;100415.00;;;17.07;96.49
8641;BME280;4358;42.100;25.222;2022-07-12T04:19:57;100419.78;;;16.82;98.65
8641;BME280;4358;42.100;25.222;2022-07-12T04:22:24;100422.19;;;16.85;98.86
8641;BME280;4358;42.100;25.222;2022-07-12T04:24:50;100422.34;;;16.84;98.74
8641;BME280;4358;42.100;25.222;2022-07-12T04:27:17;100425.50;;;16.89;98.91
8641;BME280;4358;42.100;25.222;2022-07-12T04:29:44;100421.03;;;16.99;97.59
8641;BME280;4358;42.100;25.222;2022-07-12T04:32:12;100413.56;;;17.03;96.60
8641;BME280;4358;42.100;25.222;2022-07-12T04:34:39;100417.78;;;17.16;96.25
8641;BME280;4358;42.100;25.222;2022-07-12T04:37:06;100415.72;;;17.29;96.33
8641;BME280;4358;42.100;25.222;2022-07-12T04:39:33;100424.13;;;17.46;94.32
8641;BME280;4358;42.100;25.222;2022-07-12T04:42:00;100418.56;;;17.58;93.62
8641;BME280;4358;42.100;25.222;2022-07-12T04:44:27;100425.28;;;17.73;94.33
8641;BME280;4358;42.100;25.222;2022-07-12T04:46:53;100432.94;;;17.88;92.50
8641;BME280;4358;42.100;25.222;2022-07-12T04:49:22;100431.72;;;18.01;88.41
8641;BME280;4358;42.100;25.222;2022-07-12T04:51:49;100431.59;;;18.03;91.75
8641;BME280;4358;42.100;25.222;2022-07-12T04:54:15;100430.19;;;18.08;91.03
8641;BME280;4358;42.100;25.222;2022-07-12T04:56:42;100432.47;;;18.32;88.67
8641;BME280;4358;42.100;25.222;2022-07-12T04:59:09;100433.34;;;18.42;88.42
8641;BME280;4358;42.100;25.222;2022-07-12T05:01:36;100433.09;;;18.65;86.87
8641;BME280;4358;42.100;25.222;2022-07-12T05:04:03;100441.59;;;18.79;86.65
8641;BME280;4358;42.100;25.222;2022-07-12T05:06:31;100433.25;;;18.92;81.44
8641;BME280;4358;42.100;25.222;2022-07-12T05:08:58;100437.31;;;19.05;77.99
8641;BME280;4358;42.100;25.222;2022-07-12T05:11:25;100438.44;;;19.22;76.25
8641;BME280;4358;42.100;25.222;2022-07-12T05:13:52;100444.19;;;19.37;72.91
8641;BME280;4358;42.100;25.222;2022-07-12T05:16:19;100450.25;;;19.58;72.50
8641;BME280;4358;42.100;25.222;2022-07-12T05:18:45;100447.13;;;19.63;72.08
8641;BME280;4358;42.100;25.222;2022-07-12T05:21:12;100442.53;;;19.82;70.75
8641;BME280;4358;42.100;25.222;2022-07-12T05:23:41;100446.47;;;19.88;68.29
8641;BME280;4358;42.100;25.222;2022-07-12T05:26:07;100451.66;;;19.99;68.46
8641;BME280;4358;42.100;25.222;2022-07-12T05:28:34;100443.75;;;20.15;69.40
8641;BME280;4358;42.100;25.222;2022-07-12T05:31:01;100448.94;;;20.26;68.54
8641;BME280;4358;42.100;25.222;2022-07-12T05:33:28;100452.75;;;20.34;67.71
8641;BME280;4358;42.100;25.222;2022-07-12T05:35:55;100448.94;;;20.54;67.93
8641;BME280;4358;42.100;25.222;2022-07-12T05:38:22;100448.78;;;20.55;67.30
8641;BME280;4358;42.100;25.222;2022-07-12T05:40:50;100441.59;;;20.64;68.42
8641;BME280;4358;42.100;25.222;2022-07-12T05:43:17;100447.31;;;20.79;61.98
8641;BME280;4358;42.100;25.222;2022-07-12T05:45:46;100450.00;;;20.96;60.66
8641;BME280;4358;42.100;25.222;2022-07-12T05:48:14;100445.97;;;21.00;59.31
8641;BME280;4358;42.100;25.222;2022-07-12T05:50:40;100438.25;;;21.05;58.05
8641;BME280;4358;42.100;25.222;2022-07-12T05:53:07;100454.69;;;21.30;55.05
8641;BME280;4358;42.100;25.222;2022-07-12T05:55:50;100451.88;;;21.39;56.19
8641;BME280;4358;42.100;25.222;2022-07-12T05:58:19;100445.63;;;21.39;54.24
8641;BME280;4358;42.100;25.222;2022-07-12T06:00:46;100454.22;;;21.34;55.07
8641;BME280;4358;42.100;25.222;2022-07-12T06:03:13;100452.00;;;21.30;53.61
8641;BME280;4358;42.100;25.222;2022-07-12T06:05:40;100454.34;;;21.33;55.18
8641;BME280;4358;42.100;25.222;2022-07-12T06:08:07;100440.38;;;21.37;53.65
8641;BME280;4358;42.100;25.222;2022-07-12T06:10:34;100444.41;;;21.59;54.02
8641;BME280;4358;42.100;25.222;2022-07-12T06:13:02;100442.00;;;21.82;53.05
8641;BME280;4358;42.100;25.222;2022-07-12T06:15:29;100427.25;;;22.10;50.79
8641;BME280;4358;42.100;25.222;2022-07-12T06:17:56;100435.63;;;22.33;51.12
8641;BME280;4358;42.100;25.222;2022-07-12T06:20:23;100436.66;;;22.56;51.28
8641;BME280;4358;42.100;25.222;2022-07-12T06:22:51;100449.41;;;22.80;49.46
8641;BME280;4358;42.100;25.222;2022-07-12T06:25:18;100442.66;;;22.92;49.47
8641;BME280;4358;42.100;25.222;2022-07-12T06:27:45;100428.28;;;23.00;49.30
8641;BME280;4358;42.100;25.222;2022-07-12T06:30:16;100423.88;;;23.07;49.60
8641;BME280;4358;42.100;25.222;2022-07-12T06:32:44;100424.50;;;23.25;48.40
8641;BME280;4358;42.100;25.222;2022-07-12T06:35:12;100424.38;;;23.10;47.72
8641;BME280;4358;42.100;25.222;2022-07-12T06:37:39;100431.47;;;23.03;48.97
8641;BME280;4358;42.100;25.222;2022-07-12T06:40:06;100418.13;;;23.02;48.52
8641;BME280;4358;42.100;25.222;2022-07-12T06:42:34;100424.22;;;23.12;47.90
8641;BME280;4358;42.100;25.222;2022-07-12T06:45:01;100413.19;;;23.13;48.55
8641;BME280;4358;42.100;25.222;2022-07-12T06:47:29;100416.53;;;23.40;49.01
8641;BME280;4358;42.100;25.222;2022-07-12T06:49:56;100418.38;;;23.55;48.35
8641;BME280;4358;42.100;25.222;2022-07-12T06:52:23;100406.22;;;23.51;47.32
8641;BME280;4358;42.100;25.222;2022-07-12T06:54:50;100409.59;;;23.37;47.70
8641;BME280;4358;42.100;25.222;2022-07-12T06:57:17;100411.63;;;23.35;46.69
8641;BME280;4358;42.100;25.222;2022-07-12T06:59:44;100405.88;;;23.38;47.53
8641;BME280;4358;42.100;25.222;2022-07-12T07:02:11;100409.97;;;23.26;47.61
8641;BME280;4358;42.100;25.222;2022-07-12T07:04:39;100412.69;;;23.18;46.84
8641;BME280;4358;42.100;25.222;2022-07-12T07:07:06;100430.81;;;23.17;47.97
8641;BME280;4358;42.100;25.222;2022-07-12T07:09:33;100420.47;;;23.21;46.96
8641;BME280;4358;42.100;25.222;2022-07-12T07:12:00;100407.25;;;23.34;47.77
8641;BME280;4358;42.100;25.222;2022-07-12T07:14:28;100417.06;;;23.43;47.98
8641;BME280;4358;42.100;25.222;2022-07-12T07:16:55;100409.59;;;23.53;47.40
8641;BME280;4358;42.100;25.222;2022-07-12T07:19:22;100419.53;;;23.69;46.90
8641;BME280;4358;42.100;25.222;2022-07-12T07:21:52;100411.25;;;23.71;46.42
8641;BME280;4358;42.100;25.222;2022-07-12T07:24:19;100416.25;;;23.90;44.79
8641;BME280;4358;42.100;25.222;2022-07-12T07:26:46;100422.31;;;23.92;45.21
8641;BME280;4358;42.100;25.222;2022-07-12T07:29:13;100415.03;;;23.92;44.57
8641;BME280;4358;42.100;25.222;2022-07-12T07:31:57;100407.03;;;24.07;46.06
8641;BME280;4358;42.100;25.222;2022-07-12T07:34:24;100412.41;;;24.23;44.26
8641;BME280;4358;42.100;25.222;2022-07-12T07:36:53;100410.03;;;24.20;44.21
8641;BME280;4358;42.100;25.222;2022-07-12T07:39:20;100414.34;;;24.37;43.98
8641;BME280;4358;42.100;25.222;2022-07-12T07:41:47;100406.13;;;24.45;45.16
8641;BME280;4358;42.100;25.222;2022-07-12T07:44:13;100415.91;;;24.55;46.00
8641;BME280;4358;42.100;25.222;2022-07-12T07:46:40;100407.88;;;24.38;43.98
8641;BME280;4358;42.100;25.222;2022-07-12T07:49:07;100414.25;;;24.45;44.76
8641;BME280;4358;42.100;25.222;2022-07-12T07:51:34;100406.56;;;24.57;43.50
8641;BME280;4358;42.100;25.222;2022-07-12T07:54:02;100409.53;;;24.70;41.57
8641;BME280;4358;42.100;25.222;2022-07-12T07:56:29;100399.16;;;24.74;43.24
8641;BME280;4358;42.100;25.222;2022-07-12T07:58:56;100415.66;;;24.87;43.23
8641;BME280;4358;42.100;25.222;2022-07-12T08:01:23;100411.63;;;24.83;43.28
8641;BME280;4358;42.100;25.222;2022-07-12T08:04:08;100409.63;;;24.77;42.07
8641;BME280;4358;42.100;25.222;2022-07-12T08:06:36;100402.22;;;24.94;41.82
8641;BME280;4358;42.100;25.222;2022-07-12T08:09:04;100408.06;;;25.05;43.18
8641;BME280;4358;42.100;25.222;2022-07-12T08:11:31;100409.00;;;25.12;42.07
8641;BME280;4358;42.100;25.222;2022-07-12T08:13:58;100400.91;;;25.27;41.33
8641;BME280;4358;42.100;25.222;2022-07-12T08:16:25;100390.22;;;25.40;42.16
8641;BME280;4358;42.100;25.222;2022-07-12T08:18:52;100397.28;;;25.64;41.93
8641;BME280;4358;42.100;25.222;2022-07-12T08:21:20;100393.41;;;25.44;41.48
8641;BME280;4358;42.100;25.222;2022-07-12T08:23:47;100389.19;;;25.41;41.58
8641;BME280;4358;42.100;25.222;2022-07-12T08:26:15;100405.84;;;25.23;40.02
8641;BME280;4358;42.100;25.222;2022-07-12T08:28:42;100377.56;;;25.33;41.47
8641;BME280;4358;42.100;25.222;2022-07-12T08:31:09;100389.94;;;25.50;41.25
8641;BME280;4358;42.100;25.222;2022-07-12T08:33:38;100405.03;;;25.52;40.14
8641;BME280;4358;42.100;25.222;2022-07-12T08:36:06;100388.94;;;25.65;39.41
8641;BME280;4358;42.100;25.222;2022-07-12T08:38:34;100382.47;;;25.66;38.21
8641;BME280;4358;42.100;25.222;2022-07-12T08:41:03;100385.56;;;25.63;37.83
8641;BME280;4358;42.100;25.222;2022-07-12T08:43:34;100377.69;;;25.54;39.64
8641;BME280;4358;42.100;25.222;2022-07-12T08:46:05;100375.72;;;25.77;40.08
8641;BME280;4358;42.100;25.222;2022-07-12T08:48:33;100365.47;;;25.94;40.31
8641;BME280;4358;42.100;25.222;2022-07-12T08:51:03;100368.59;;;26.12;38.77
8641;BME280;4358;42.100;25.222;2022-07-12T08:53:30;100352.34;;;26.19;37.98
8641;BME280;4358;42.100;25.222;2022-07-12T08:55:57;100373.91;;;26.35;37.72
8641;BME280;4358;42.100;25.222;2022-07-12T08:58:24;100355.66;;;26.14;38.09
8641;BME280;4358;42.100;25.222;2022-07-12T09:00:52;100360.38;;;26.41;38.93
8641;BME280;4358;42.100;25.222;2022-07-12T09:03:19;100359.53;;;26.62;37.35
8641;BME280;4358;42.100;25.222;2022-07-12T09:05:51;100361.28;;;26.70;37.49
8641;BME280;4358;42.100;25.222;2022-07-12T09:08:24;100363.69;;;26.79;37.42
8641;BME280;4358;42.100;25.222;2022-07-12T09:10:54;100357.56;;;26.77;34.88
8641;BME280;4358;42.100;25.222;2022-07-12T09:13:49;100351.09;;;27.00;34.45
8641;BME280;4358;42.100;25.222;2022-07-12T09:16:19;100348.38;;;27.34;34.77
8641;BME280;4358;42.100;25.222;2022-07-12T09:18:47;100346.31;;;27.42;34.21
8641;BME280;4358;42.100;25.222;2022-07-12T09:21:24;100331.03;;;27.42;35.27
8641;BME280;4358;42.100;25.222;2022-07-12T09:23:53;100332.91;;;27.41;34.73
8641;BME280;4358;42.100;25.222;2022-07-12T09:26:21;100337.00;;;27.24;31.61
8641;BME280;4358;42.100;25.222;2022-07-12T09:28:49;100330.59;;;27.38;32.64
8641;BME280;4358;42.100;25.222;2022-07-12T09:31:18;100327.84;;;27.38;33.39
8641;BME280;4358;42.100;25.222;2022-07-12T09:34:02;100332.44;;;27.31;31.36
8641;BME280;4358;42.100;25.222;2022-07-12T09:37:04;100338.50;;;26.98;31.67
8641;BME280;4358;42.100;25.222;2022-07-12T09:39:31;100314.66;;;27.01;32.11
8641;BME280;4358;42.100;25.222;2022-07-12T09:41:58;100316.53;;;27.00;30.94
8641;BME280;4358;42.100;25.222;2022-07-12T09:44:29;100330.47;;;26.90;32.63
8641;BME280;4358;42.100;25.222;2022-07-12T09:46:58;100316.91;;;26.69;32.53
8641;BME280;4358;42.100;25.222;2022-07-12T09:49:27;100322.53;;;26.89;32.22
8641;BME280;4358;42.100;25.222;2022-07-12T09:51:55;100326.97;;;26.96;32.34
8641;BME280;4358;42.100;25.222;2022-07-12T09:54:25;100321.84;;;27.15;32.63
8641;BME280;4358;42.100;25.222;2022-07-12T09:56:53;100314.34;;;27.23;32.51
8641;BME280;4358;42.100;25.222;2022-07-12T09:59:23;100314.06;;;27.46;32.06
8641;BME280;4358;42.100;25.222;2022-07-12T10:01:50;100317.31;;;27.56;31.72
8641;BME280;4358;42.100;25.222;2022-07-12T10:04:23;100312.53;;;27.71;32.16
8641;BME280;4358;42.100;25.222;2022-07-12T10:06:50;100309.50;;;28.07;31.72
8641;BME280;4358;42.100;25.222;2022-07-12T10:09:17;100313.16;;;28.34;29.96
8641;BME280;4358;42.100;25.222;2022-07-12T10:11:44;100321.88;;;28.03;31.78
8641;BME280;4358;42.100;25.222;2022-07-12T10:14:12;100307.13;;;27.85;32.14
8641;BME280;4358;42.100;25.222;2022-07-12T10:16:41;100314.66;;;27.76;31.32
8641;BME280;4358;42.100;25.222;2022-07-12T10:19:26;100296.22;;;27.85;31.42
8641;BME280;4358;42.100;25.222;2022-07-12T10:21:54;100302.09;;;27.81;30.80
8641;BME280;4358;42.100;25.222;2022-07-12T10:24:51;100294.22;;;28.13;31.37
8641;BME280;4358;42.100;25.222;2022-07-12T10:27:30;100289.19;;;28.16;29.95
8641;BME280;4358;42.100;25.222;2022-07-12T10:30:15;100294.47;;;28.31;30.93
8641;BME280;4358;42.100;25.222;2022-07-12T10:32:43;100302.03;;;28.29;30.41
8641;BME280;4358;42.100;25.222;2022-07-12T10:35:17;100271.91;;;27.90;30.66
8641;BME280;4358;42.100;25.222;2022-07-12T10:38:18;100280.94;;;27.97;30.00
8641;BME280;4358;42.100;25.222;2022-07-12T10:40:49;100286.28;;;28.44;30.69
8641;BME280;4358;42.100;25.222;2022-07-12T10:43:18;100282.13;;;28.75;30.74
8641;BME280;4358;42.100;25.222;2022-07-12T10:45:48;100275.56;;;28.95;30.46
8641;BME280;4358;42.100;25.222;2022-07-12T10:48:22;100265.72;;;28.81;30.58
8641;BME280;4358;42.100;25.222;2022-07-12T10:50:55;100266.91;;;29.18;30.25
8641;BME280;4358;42.100;25.222;2022-07-12T10:53:28;100255.47;;;29.47;29.71
8641;BME280;4358;42.100;25.222;2022-07-12T10:56:29;100265.00;;;29.83;29.45
8641;BME280;4358;42.100;25.222;2022-07-12T10:58:58;100265.53;;;29.54;29.34
8641;BME280;4358;42.100;25.222;2022-07-12T11:01:27;100246.47;;;29.27;29.43
8641;BME280;4358;42.100;25.222;2022-07-12T11:03:55;100258.94;;;29.10;28.51
8641;BME280;4358;42.100;25.222;2022-07-12T11:06:25;100252.22;;;29.06;29.61
8641;BME280;4358;42.100;25.222;2022-07-12T11:08:54;100247.25;;;28.77;29.41
8641;BME280;4358;42.100;25.222;2022-07-12T11:11:24;100252.66;;;28.96;29.72
8641;BME280;4358;42.100;25.222;2022-07-12T11:13:51;100257.69;;;29.06;30.47
8641;BME280;4358;42.100;25.222;2022-07-12T11:16:19;100260.59;;;29.11;29.12
8641;BME280;4358;42.100;25.222;2022-07-12T11:18:45;100246.34;;;29.09;29.10
8641;BME280;4358;42.100;25.222;2022-07-12T11:21:13;100254.69;;;29.21;29.10
8641;BME280;4358;42.100;25.222;2022-07-12T11:23:42;100250.31;;;29.13;29.34
8641;BME280;4358;42.100;25.222;2022-07-12T11:26:10;100244.66;;;29.08;29.44
8641;BME280;4358;42.100;25.222;2022-07-12T11:28:39;100239.19;;;29.08;29.77
8641;BME280;4358;42.100;25.222;2022-07-12T11:31:08;100244.44;;;29.10;28.74
8641;BME280;4358;42.100;25.222;2022-07-12T11:33:38;100250.50;;;29.18;30.07
8641;BME280;4358;42.100;25.222;2022-07-12T11:36:06;100241.72;;;29.03;31.87
8641;BME280;4358;42.100;25.222;2022-07-12T11:38:34;100230.22;;;28.88;30.96
8641;BME280;4358;42.100;25.222;2022-07-12T11:41:03;100235.81;;;29.13;31.56
8641;BME280;4358;42.100;25.222;2022-07-12T11:43:32;100233.94;;;29.06;31.24
8641;BME280;4358;42.100;25.222;2022-07-12T11:45:59;100237.06;;;29.10;30.45
8641;BME280;4358;42.100;25.222;2022-07-12T11:48:27;100236.59;;;29.26;29.71
8641;BME280;4358;42.100;25.222;2022-07-12T11:50:55;100243.66;;;29.60;29.62
8641;BME280;4358;42.100;25.222;2022-07-12T11:53:23;100219.22;;;29.65;29.46
8641;BME280;4358;42.100;25.222;2022-07-12T11:55:52;100226.06;;;29.36;29.83
8641;BME280;4358;42.100;25.222;2022-07-12T11:58:22;100234.94;;;29.25;30.47
8641;BME280;4358;42.100;25.222;2022-07-12T12:00:51;100239.41;;;29.00;29.65
8641;BME280;4358;42.100;25.222;2022-07-12T12:03:19;100213.47;;;29.22;29.39
8641;BME280;4358;42.100;25.222;2022-07-12T12:05:49;100219.25;;;29.52;28.99
8641;BME280;4358;42.100;25.222;2022-07-12T12:08:16;100226.09;;;29.74;28.33
8641;BME280;4358;42.100;25.222;2022-07-12T12:10:53;100213.47;;;29.35;29.51
8641;BME280;4358;42.100;25.222;2022-07-12T12:13:23;100218.38;;;29.14;31.06
8641;BME280;4358;42.100;25.222;2022-07-12T12:15:50;100206.41;;;28.95;30.51
8641;BME280;4358;42.100;25.222;2022-07-12T12:18:28;100210.19;;;29.00;30.61
8641;BME280;4358;42.100;25.222;2022-07-12T12:21:00;100208.09;;;28.96;29.71
8641;BME280;4358;42.100;25.222;2022-07-12T12:23:28;100195.28;;;29.03;30.52
8641;BME280;4358;42.100;25.222;2022-07-12T12:26:10;100206.31;;;29.28;31.13
8641;BME280;4358;42.100;25.222;2022-07-12T12:28:45;100206.97;;;29.23;29.97
8641;BME280;4358;42.100;25.222;2022-07-12T12:31:13;100193.25;;;29.36;29.44
8641;BME280;4358;42.100;25.222;2022-07-12T12:33:42;100197.53;;;29.19;29.49
8641;BME280;4358;42.100;25.222;2022-07-12T12:36:13;100203.41;;;29.16;29.64
8641;BME280;4358;42.100;25.222;2022-07-12T12:38:41;100202.63;;;29.09;29.63
8641;BME280;4358;42.100;25.222;2022-07-12T12:41:09;100200.38;;;29.44;30.50
8641;BME280;4358;42.100;25.222;2022-07-12T12:43:36;100186.41;;;29.59;30.29
8641;BME280;4358;42.100;25.222;2022-07-12T12:46:05;100204.66;;;29.71;30.07
8641;BME280;4358;42.100;25.222;2022-07-12T12:48:33;100192.06;;;29.64;30.04
8641;BME280;4358;42.100;25.222;2022-07-12T12:51:04;100186.94;;;29.42;30.64
8641;BME280;4358;42.100;25.222;2022-07-12T12:53:32;100189.28;;;29.77;30.74
8641;BME280;4358;42.100;25.222;2022-07-12T12:55:59;100198.34;;;29.71;30.57
8641;BME280;4358;42.100;25.222;2022-07-12T12:58:26;100194.09;;;29.75;30.10
8641;BME280;4358;42.100;25.222;2022-07-12T13:00:54;100189.41;;;29.88;29.81
8641;BME280;4358;42.100;25.222;2022-07-12T13:03:23;100188.50;;;30.01;29.74
8641;BME280;4358;42.100;25.222;2022-07-12T13:05:51;100182.25;;;30.19;29.46
8641;BME280;4358;42.100;25.222;2022-07-12T13:08:18;100184.31;;;30.23;28.54